sensor_id;sensor_type;location;lat;lon;timestamp;temperature;humidity
43414;DHT22;29013;49.676;8.606;2023-05-01T00:03:23;14.6;85.8
43414;DHT22;29013;49.676;8.606;2023-05-01T00:08:44;14.5;85.7
43414;DHT22;29013;49.676;8.606;2023-05-01T00:14:09;14.5;86.1
43414;DHT22;29013;49.676;8.606;2023-05-01T00:19:34;14.5;86.2
43414;DHT22;29013;49.676;8.606;2023-05-01T00:24:56;14.5;86.5
43414;DHT22;29013;49.676;8.606;2023-05-01T00:30:20;14.5;86.4
43414;DHT22;29013;49.676;8.606;2023-05-01T00:35:44;14.5;86.6
43414;DHT22;29013;49.676;8.606;2023-05-01T00:41:08;14.4;86.9
43414;DHT22;29013;49.676;8.606;2023-05-01T00:46:49;14.0;88.6
43414;DHT22;29013;49.676;8.606;2023-05-01T00:52:07;14.1;87.5
43414;DHT22;29013;49.676;8.606;2023-05-01T00:57:52;14.0;88.9
43414;DHT22;29013;49.676;8.606;2023-05-01T01:03:14;14.2;87.7
43414;DHT22;29013;49.676;8.606;2023-05-01T01:08:42;14.1;89.4
43414;DHT22;29013;49.676;8.606;2023-05-01T01:14:07;14.1;88.6
43414;DHT22;29013;49.676;8.606;2023-05-01T01:19:47;14.1;88.2
43414;DHT22;29013;49.676;8.606;2023-05-01T01:25:19;14.2;89.3
43414;DHT22;29013;49.676;8.606;2023-05-01T01:30:56;14.2;88.8
43414;DHT22;29013;49.676;8.606;2023-05-01T01:36:14;14.2;88.6
43414;DHT22;29013;49.676;8.606;2023-05-01T01:41:34;14.1;88.8
43414;DHT22;29013;49.676;8.606;2023-05-01T01:46:57;14.1;90.0
43414;DHT22;29013;49.676;8.606;2023-05-01T01:52:21;14.1;89.5
43414;DHT22;29013;49.676;8.606;2023-05-01T01:57:43;14.0;89.7
43414;DHT22;29013;49.676;8.606;2023-05-01T02:03:07;13.9;88.4
43414;DHT22;29013;49.676;8.606;2023-05-01T02:08:30;13.7;88.3
43414;DHT22;29013;49.676;8.606;2023-05-01T02:13:52;13.6;89.0
43414;DHT22;29013;49.676;8.606;2023-05-01T02:19:18;13.6;89.1
43414;DHT22;29013;49.676;8.606;2023-05-01T02:24:37;13.6;89.3
43414;DHT22;29013;49.676;8.606;2023-05-01T02:30:02;13.6;89.4
43414;DHT22;29013;49.676;8.606;2023-05-01T02:35:27;13.6;89.4
43414;DHT22;29013;49.676;8.606;2023-05-01T02:40:51;13.7;88.9
43414;DHT22;29013;49.676;8.606;2023-05-01T02:46:39;13.7;89.8
43414;DHT22;29013;49.676;8.606;2023-05-01T02:51:59;14.0;88.4
43414;DHT22;29013;49.676;8.606;2023-05-01T02:57:22;14.1;89.5
43414;DHT22;29013;49.676;8.606;2023-05-01T03:02:47;14.1;88.5
43414;DHT22;29013;49.676;8.606;2023-05-01T03:08:12;14.1;89.7
43414;DHT22;29013;49.676;8.606;2023-05-01T03:13:36;14.1;88.5
43414;DHT22;29013;49.676;8.606;2023-05-01T03:18:58;13.9;87.4
43414;DHT22;29013;49.676;8.606;2023-05-01T03:24:22;13.6;87.6
43414;DHT22;29013;49.676;8.606;2023-05-01T03:29:46;13.3;88.1
43414;DHT22;29013;49.676;8.606;2023-05-01T03:35:11;13.3;88.3
43414;DHT22;29013;49.676;8.606;2023-05-01T03:40:36;13.3;89.6
43414;DHT22;29013;49.676;8.606;2023-05-01T03:46:02;13.5;90.6
43414;DHT22;29013;49.676;8.606;2023-05-01T03:51:24;13.6;90.4
43414;DHT22;29013;49.676;8.606;2023-05-01T03:56:50;13.6;90.9
43414;DHT22;29013;49.676;8.606;2023-05-01T04:02:16;13.6;91.3
43414;DHT22;29013;49.676;8.606;2023-05-01T04:07:40;13.5;91.6
43414;DHT22;29013;49.676;8.606;2023-05-01T04:13:06;13.2;91.9
43414;DHT22;29013;49.676;8.606;2023-05-01T04:18:30;13.1;92.1
43414;DHT22;29013;49.676;8.606;2023-05-01T04:23:49;13.2;92.7
43414;DHT22;29013;49.676;8.606;2023-05-01T04:29:07;13.2;92.9
43414;DHT22;29013;49.676;8.606;2023-05-01T04:34:30;13.1;93.2
43414;DHT22;29013;49.676;8.606;2023-05-01T04:39:53;13.0;93.7
43414;DHT22;29013;49.676;8.606;2023-05-01T04:45:16;13.0;94.0
43414;DHT22;29013;49.676;8.606;2023-05-01T04:50:41;12.9;94.0
43414;DHT22;29013;49.676;8.606;2023-05-01T04:56:03;12.8;94.4
43414;DHT22;29013;49.676;8.606;2023-05-01T05:01:26;12.9;94.7
43414;DHT22;29013;49.676;8.606;2023-05-01T05:06:51;12.9;94.7
43414;DHT22;29013;49.676;8.606;2023-05-01T05:12:16;13.0;94.9
43414;DHT22;29013;49.676;8.606;2023-05-01T05:17:41;13.0;94.9
43414;DHT22;29013;49.676;8.606;2023-05-01T05:23:04;13.0;94.9
43414;DHT22;29013;49.676;8.606;2023-05-01T05:28:28;13.0;95.5
43414;DHT22;29013;49.676;8.606;2023-05-01T05:33:52;13.0;95.6
43414;DHT22;29013;49.676;8.606;2023-05-01T05:39:15;13.1;95.7
43414;DHT22;29013;49.676;8.606;2023-05-01T05:44:38;13.2;95.8
43414;DHT22;29013;49.676;8.606;2023-05-01T05:50:05;13.0;96.0
43414;DHT22;29013;49.676;8.606;2023-05-01T05:55:29;13.1;95.9
43414;DHT22;29013;49.676;8.606;2023-05-01T06:00:53;13.2;96.0
43414;DHT22;29013;49.676;8.606;2023-05-01T06:06:33;13.4;96.3
43414;DHT22;29013;49.676;8.606;2023-05-01T06:11:59;13.6;96.1
43414;DHT22;29013;49.676;8.606;2023-05-01T06:17:24;13.8;96.0
43414;DHT22;29013;49.676;8.606;2023-05-01T06:22:47;13.9;96.2
43414;DHT22;29013;49.676;8.606;2023-05-01T06:28:31;14.0;96.6
43414;DHT22;29013;49.676;8.606;2023-05-01T06:33:55;14.3;96.1
43414;DHT22;29013;49.676;8.606;2023-05-01T06:39:19;14.3;96.3
43414;DHT22;29013;49.676;8.606;2023-05-01T06:44:41;14.4;95.9
43414;DHT22;29013;49.676;8.606;2023-05-01T06:50:23;14.6;95.7
43414;DHT22;29013;49.676;8.606;2023-05-01T06:55:45;14.9;94.9
43414;DHT22;29013;49.676;8.606;2023-05-01T07:01:25;15.1;95.4
43414;DHT22;29013;49.676;8.606;2023-05-01T07:06:48;15.4;94.3
43414;DHT22;29013;49.676;8.606;2023-05-01T07:12:13;15.5;94.3
43414;DHT22;29013;49.676;8.606;2023-05-01T07:17:32;15.7;94.1
43414;DHT22;29013;49.676;8.606;2023-05-01T07:22:52;15.9;94.4
43414;DHT22;29013;49.676;8.606;2023-05-01T07:28:13;16.1;93.9
43414;DHT22;29013;49.676;8.606;2023-05-01T07:33:37;16.2;93.9
43414;DHT22;29013;49.676;8.606;2023-05-01T07:39:17;16.2;94.0
43414;DHT22;29013;49.676;8.606;2023-05-01T07:44:38;16.5;93.9
43414;DHT22;29013;49.676;8.606;2023-05-01T07:50:08;16.6;93.3
43414;DHT22;29013;49.676;8.606;2023-05-01T07:55:30;16.8;93.7
43414;DHT22;29013;49.676;8.606;2023-05-01T08:00:53;16.8;93.4
43414;DHT22;29013;49.676;8.606;2023-05-01T08:06:17;16.9;93.3
43414;DHT22;29013;49.676;8.606;2023-05-01T08:11:40;16.9;93.1
43414;DHT22;29013;49.676;8.606;2023-05-01T08:17:04;17.1;93.0
43414;DHT22;29013;49.676;8.606;2023-05-01T08:22:54;17.1;93.6
43414;DHT22;29013;49.676;8.606;2023-05-01T08:28:18;17.5;92.4
43414;DHT22;29013;49.676;8.606;2023-05-01T08:33:39;17.5;91.0
43414;DHT22;29013;49.676;8.606;2023-05-01T08:39:03;17.6;90.2
43414;DHT22;29013;49.676;8.606;2023-05-01T08:44:28;17.8;90.0
43414;DHT22;29013;49.676;8.606;2023-05-01T08:49:53;17.8;89.8
43414;DHT22;29013;49.676;8.606;2023-05-01T08:55:14;18.1;90.5
43414;DHT22;29013;49.676;8.606;2023-05-01T09:00:38;18.2;89.9
43414;DHT22;29013;49.676;8.606;2023-05-01T09:05:59;18.4;88.6
43414;DHT22;29013;49.676;8.606;2023-05-01T09:11:19;18.5;87.9
43414;DHT22;29013;49.676;8.606;2023-05-01T09:16:38;18.7;87.3
43414;DHT22;29013;49.676;8.606;2023-05-01T09:22:02;18.8;85.3
43414;DHT22;29013;49.676;8.606;2023-05-01T09:27:26;18.9;85.0
43414;DHT22;29013;49.676;8.606;2023-05-01T09:32:49;19.1;86.0
43414;DHT22;29013;49.676;8.606;2023-05-01T09:38:14;19.1;85.5
43414;DHT22;29013;49.676;8.606;2023-05-01T09:43:37;18.8;85.4
43414;DHT22;29013;49.676;8.606;2023-05-01T09:49:00;18.3;86.4
43414;DHT22;29013;49.676;8.606;2023-05-01T09:54:25;18.4;86.1
43414;DHT22;29013;49.676;8.606;2023-05-01T09:59:55;18.6;85.3
43414;DHT22;29013;49.676;8.606;2023-05-01T10:05:17;18.7;85.8
43414;DHT22;29013;49.676;8.606;2023-05-01T10:10:39;18.7;83.8
43414;DHT22;29013;49.676;8.606;2023-05-01T10:15:58;18.7;83.0
43414;DHT22;29013;49.676;8.606;2023-05-01T10:21:19;18.4;82.2
43414;DHT22;29013;49.676;8.606;2023-05-01T10:26:44;18.0;83.2
43414;DHT22;29013;49.676;8.606;2023-05-01T10:32:08;17.8;83.7
43414;DHT22;29013;49.676;8.606;2023-05-01T10:37:34;17.7;85.7
43414;DHT22;29013;49.676;8.606;2023-05-01T10:43:15;17.7;89.1
43414;DHT22;29013;49.676;8.606;2023-05-01T10:48:55;17.9;86.6
43414;DHT22;29013;49.676;8.606;2023-05-01T10:54:26;18.0;86.2
43414;DHT22;29013;49.676;8.606;2023-05-01T11:00:13;18.1;88.7
43414;DHT22;29013;49.676;8.606;2023-05-01T11:06:10;18.4;90.2
43414;DHT22;29013;49.676;8.606;2023-05-01T11:11:49;18.9;89.1
43414;DHT22;29013;49.676;8.606;2023-05-01T11:17:12;18.8;85.6
43414;DHT22;29013;49.676;8.606;2023-05-01T11:22:34;18.8;86.1
43414;DHT22;29013;49.676;8.606;2023-05-01T11:28:20;19.0;86.5
43414;DHT22;29013;49.676;8.606;2023-05-01T11:33:38;19.3;83.2
43414;DHT22;29013;49.676;8.606;2023-05-01T11:39:00;19.5;85.2
43414;DHT22;29013;49.676;8.606;2023-05-01T11:44:22;19.6;86.1
43414;DHT22;29013;49.676;8.606;2023-05-01T11:49:45;19.6;84.0
43414;DHT22;29013;49.676;8.606;2023-05-01T11:55:35;19.6;86.4
43414;DHT22;29013;49.676;8.606;2023-05-01T12:00:55;20.0;84.7
43414;DHT22;29013;49.676;8.606;2023-05-01T12:06:18;20.1;81.6
43414;DHT22;29013;49.676;8.606;2023-05-01T12:11:38;20.2;78.6
43414;DHT22;29013;49.676;8.606;2023-05-01T12:17:05;20.1;77.4
43414;DHT22;29013;49.676;8.606;2023-05-01T12:22:30;20.4;78.9
43414;DHT22;29013;49.676;8.606;2023-05-01T12:27:54;20.8;80.6
43414;DHT22;29013;49.676;8.606;2023-05-01T12:33:19;20.9;78.8
43414;DHT22;29013;49.676;8.606;2023-05-01T12:39:03;20.5;78.9
43414;DHT22;29013;49.676;8.606;2023-05-01T12:44:23;20.7;80.3
43414;DHT22;29013;49.676;8.606;2023-05-01T12:49:46;21.2;78.7
43414;DHT22;29013;49.676;8.606;2023-05-01T12:55:09;21.4;79.3
43414;DHT22;29013;49.676;8.606;2023-05-01T13:00:45;21.5;78.6
43414;DHT22;29013;49.676;8.606;2023-05-01T13:06:05;21.6;76.2
43414;DHT22;29013;49.676;8.606;2023-05-01T13:11:27;21.5;75.5
43414;DHT22;29013;49.676;8.606;2023-05-01T13:16:56;21.7;75.0
43414;DHT22;29013;49.676;8.606;2023-05-01T13:22:16;22.2;75.7
43414;DHT22;29013;49.676;8.606;2023-05-01T13:27:40;22.3;75.4
43414;DHT22;29013;49.676;8.606;2023-05-01T13:33:04;21.9;74.4
43414;DHT22;29013;49.676;8.606;2023-05-01T13:38:27;21.9;75.5
43414;DHT22;29013;49.676;8.606;2023-05-01T13:43:53;21.9;74.5
43414;DHT22;29013;49.676;8.606;2023-05-01T13:49:18;22.0;73.8
43414;DHT22;29013;49.676;8.606;2023-05-01T13:54:39;22.0;74.1
43414;DHT22;29013;49.676;8.606;2023-05-01T14:00:05;22.0;74.0
43414;DHT22;29013;49.676;8.606;2023-05-01T14:05:29;22.0;72.7
43414;DHT22;29013;49.676;8.606;2023-05-01T14:10:52;22.1;72.2
43414;DHT22;29013;49.676;8.606;2023-05-01T14:16:22;22.5;72.9
43414;DHT22;29013;49.676;8.606;2023-05-01T14:21:41;22.9;71.8
43414;DHT22;29013;49.676;8.606;2023-05-01T14:27:54;22.9;71.4
43414;DHT22;29013;49.676;8.606;2023-05-01T14:33:16;23.1;70.5
43414;DHT22;29013;49.676;8.606;2023-05-01T14:38:40;22.8;67.9
43414;DHT22;29013;49.676;8.606;2023-05-01T14:44:03;22.3;68.6
43414;DHT22;29013;49.676;8.606;2023-05-01T14:49:29;22.6;71.9
43414;DHT22;29013;49.676;8.606;2023-05-01T14:55:13;23.1;70.0
43414;DHT22;29013;49.676;8.606;2023-05-01T15:00:32;23.4;66.8
43414;DHT22;29013;49.676;8.606;2023-05-01T15:05:57;23.4;66.5
43414;DHT22;29013;49.676;8.606;2023-05-01T15:11:19;23.3;68.9
43414;DHT22;29013;49.676;8.606;2023-05-01T15:16:43;22.7;65.9
43414;DHT22;29013;49.676;8.606;2023-05-01T15:22:07;22.4;65.5
43414;DHT22;29013;49.676;8.606;2023-05-01T15:27:30;22.1;66.3
43414;DHT22;29013;49.676;8.606;2023-05-01T15:32:54;21.9;65.7
43414;DHT22;29013;49.676;8.606;2023-05-01T15:38:19;22.2;65.8
43414;DHT22;29013;49.676;8.606;2023-05-01T15:43:45;22.4;64.5
43414;DHT22;29013;49.676;8.606;2023-05-01T15:49:08;22.4;65.3
43414;DHT22;29013;49.676;8.606;2023-05-01T15:54:32;22.4;66.7
43414;DHT22;29013;49.676;8.606;2023-05-01T15:59:57;22.3;68.2
43414;DHT22;29013;49.676;8.606;2023-05-01T16:05:20;22.0;65.7
43414;DHT22;29013;49.676;8.606;2023-05-01T16:10:44;21.6;66.6
43414;DHT22;29013;49.676;8.606;2023-05-01T16:16:08;21.3;66.9
43414;DHT22;29013;49.676;8.606;2023-05-01T16:21:31;21.0;66.6
43414;DHT22;29013;49.676;8.606;2023-05-01T16:26:55;20.8;67.7
43414;DHT22;29013;49.676;8.606;2023-05-01T16:32:20;20.5;68.7
43414;DHT22;29013;49.676;8.606;2023-05-01T16:37:45;20.5;69.0
43414;DHT22;29013;49.676;8.606;2023-05-01T16:43:09;20.4;70.6
43414;DHT22;29013;49.676;8.606;2023-05-01T16:48:33;20.6;71.6
43414;DHT22;29013;49.676;8.606;2023-05-01T16:53:59;20.8;71.2
43414;DHT22;29013;49.676;8.606;2023-05-01T16:59:22;20.9;73.2
43414;DHT22;29013;49.676;8.606;2023-05-01T17:04:45;20.8;71.7
43414;DHT22;29013;49.676;8.606;2023-05-01T17:10:11;20.6;71.8
43414;DHT22;29013;49.676;8.606;2023-05-01T17:15:30;20.4;71.4
43414;DHT22;29013;49.676;8.606;2023-05-01T17:20:56;20.2;72.3
43414;DHT22;29013;49.676;8.606;2023-05-01T17:26:20;20.1;72.3
43414;DHT22;29013;49.676;8.606;2023-05-01T17:31:42;20.0;72.2
43414;DHT22;29013;49.676;8.606;2023-05-01T17:37:05;19.9;73.9
43414;DHT22;29013;49.676;8.606;2023-05-01T17:44:01;19.6;72.7
43414;DHT22;29013;49.676;8.606;2023-05-01T17:49:24;19.8;72.7
43414;DHT22;29013;49.676;8.606;2023-05-01T17:54:49;19.5;75.9
43414;DHT22;29013;49.676;8.606;2023-05-01T18:00:16;19.0;78.3
43414;DHT22;29013;49.676;8.606;2023-05-01T18:06:03;18.7;79.5
43414;DHT22;29013;49.676;8.606;2023-05-01T18:11:23;18.7;81.2
43414;DHT22;29013;49.676;8.606;2023-05-01T18:16:47;18.4;81.9
43414;DHT22;29013;49.676;8.606;2023-05-01T18:22:12;18.2;82.7
43414;DHT22;29013;49.676;8.606;2023-05-01T18:27:36;18.1;84.1
43414;DHT22;29013;49.676;8.606;2023-05-01T18:33:06;18.0;84.4
43414;DHT22;29013;49.676;8.606;2023-05-01T18:38:29;18.0;84.5
43414;DHT22;29013;49.676;8.606;2023-05-01T18:43:51;17.9;84.8
43414;DHT22;29013;49.676;8.606;2023-05-01T18:49:15;17.8;85.6
43414;DHT22;29013;49.676;8.606;2023-05-01T18:54:40;17.7;85.0
43414;DHT22;29013;49.676;8.606;2023-05-01T19:00:08;17.7;86.7
43414;DHT22;29013;49.676;8.606;2023-05-01T19:05:28;17.7;86.3
43414;DHT22;29013;49.676;8.606;2023-05-01T19:10:48;17.7;87.6
43414;DHT22;29013;49.676;8.606;2023-05-01T19:16:13;17.6;87.9
43414;DHT22;29013;49.676;8.606;2023-05-01T19:21:57;17.5;90.1
43414;DHT22;29013;49.676;8.606;2023-05-01T19:27:15;17.6;89.6
43414;DHT22;29013;49.676;8.606;2023-05-01T19:32:39;17.5;89.6
43414;DHT22;29013;49.676;8.606;2023-05-01T19:38:02;17.3;90.3
43414;DHT22;29013;49.676;8.606;2023-05-01T19:43:25;17.1;90.2
43414;DHT22;29013;49.676;8.606;2023-05-01T19:48:49;16.9;90.4
43414;DHT22;29013;49.676;8.606;2023-05-01T19:54:10;16.6;90.9
43414;DHT22;29013;49.676;8.606;2023-05-01T19:59:35;16.4;91.2
43414;DHT22;29013;49.676;8.606;2023-05-01T20:04:59;16.3;91.3
43414;DHT22;29013;49.676;8.606;2023-05-01T20:10:41;16.1;92.3
43414;DHT22;29013;49.676;8.606;2023-05-01T20:16:03;16.3;91.8
43414;DHT22;29013;49.676;8.606;2023-05-01T20:21:26;16.3;91.7
43414;DHT22;29013;49.676;8.606;2023-05-01T20:26:48;16.3;92.4
43414;DHT22;29013;49.676;8.606;2023-05-01T20:32:11;16.2;92.5
43414;DHT22;29013;49.676;8.606;2023-05-01T20:37:33;16.2;92.4
43414;DHT22;29013;49.676;8.606;2023-05-01T20:42:58;16.2;92.9
43414;DHT22;29013;49.676;8.606;2023-05-01T20:48:22;16.1;93.1
43414;DHT22;29013;49.676;8.606;2023-05-01T20:53:47;16.0;93.2
43414;DHT22;29013;49.676;8.606;2023-05-01T20:59:09;15.9;93.7
43414;DHT22;29013;49.676;8.606;2023-05-01T21:04:32;15.7;94.1
43414;DHT22;29013;49.676;8.606;2023-05-01T21:09:58;15.7;94.3
43414;DHT22;29013;49.676;8.606;2023-05-01T21:15:22;15.7;94.3
43414;DHT22;29013;49.676;8.606;2023-05-01T21:20:47;15.7;94.5
43414;DHT22;29013;49.676;8.606;2023-05-01T21:26:11;15.7;94.5
43414;DHT22;29013;49.676;8.606;2023-05-01T21:31:35;15.6;94.6
43414;DHT22;29013;49.676;8.606;2023-05-01T21:36:59;15.6;95.1
43414;DHT22;29013;49.676;8.606;2023-05-01T21:42:23;15.6;94.9
43414;DHT22;29013;49.676;8.606;2023-05-01T21:47:46;15.5;95.2
43414;DHT22;29013;49.676;8.606;2023-05-01T21:53:09;15.6;95.5
43414;DHT22;29013;49.676;8.606;2023-05-01T21:58:33;15.5;95.7
43414;DHT22;29013;49.676;8.606;2023-05-01T22:03:51;15.6;95.6
43414;DHT22;29013;49.676;8.606;2023-05-01T22:09:15;15.5;95.8
43414;DHT22;29013;49.676;8.606;2023-05-01T22:14:37;15.4;96.2
43414;DHT22;29013;49.676;8.606;2023-05-01T22:19:56;15.4;96.2
43414;DHT22;29013;49.676;8.606;2023-05-01T22:25:16;15.4;96.2
43414;DHT22;29013;49.676;8.606;2023-05-01T22:30:38;15.3;96.7
43414;DHT22;29013;49.676;8.606;2023-05-01T22:36:03;15.2;96.8
43414;DHT22;29013;49.676;8.606;2023-05-01T22:41:28;15.3;97.2
43414;DHT22;29013;49.676;8.606;2023-05-01T22:46:53;15.3;97.1
43414;DHT22;29013;49.676;8.606;2023-05-01T22:52:17;15.2;97.3
43414;DHT22;29013;49.676;8.606;2023-05-01T22:57:41;15.2;97.5
43414;DHT22;29013;49.676;8.606;2023-05-01T23:03:25;15.1;97.7
43414;DHT22;29013;49.676;8.606;2023-05-01T23:08:45;15.3;97.6
43414;DHT22;29013;49.676;8.606;2023-05-01T23:14:10;15.3;97.9
43414;DHT22;29013;49.676;8.606;2023-05-01T23:19:33;15.2;98.2
43414;DHT22;29013;49.676;8.606;2023-05-01T23:24:57;15.1;98.5
43414;DHT22;29013;49.676;8.606;2023-05-01T23:30:22;15.1;98.7
43414;DHT22;29013;49.676;8.606;2023-05-01T23:35:44;15.1;99.1
43414;DHT22;29013;49.676;8.606;2023-05-01T23:41:05;15.0;98.8
43414;DHT22;29013;49.676;8.606;2023-05-01T23:46:25;14.7;99.2
43414;DHT22;29013;49.676;8.606;2023-05-01T23:51:50;14.7;99.9
43414;DHT22;29013;49.676;8.606;2023-05-01T23:57:13;14.7;99.9
